Time;durP1;ratioP1;P1;durP2;ratioP2;P2;SDS_P1;SDS_P2;PMS_P1;PMS_P2;Temp;Humidity;BMP_temperature;BMP_pressure;BME280_temperature;BME280_humidity;BME280_pressure;Samples;Min_cycle;Max_cycle;Signal;HPM_P1;HPM_P2
2024/02/13 00:00:52;;;;;;;19.80;11.77;;;;;;;;;;5072112;28;20028;-75
2024/02/13 00:03:18;;;;;;;19.83;12.75;;;;;;;;;;5072537;28;20382;-75
2024/02/13 00:05:43;;;;;;;21.75;12.45;;;;;;;;;;5070371;28;20032;-76
2024/02/13 00:08:10;;;;;;;22.83;13.57;;;;;;;;;;5070486;28;20378;-76
2024/02/13 00:10:36;;;;;;;22.70;11.32;;;;;;;;;;5076653;28;20024;-75
2024/02/13 00:13:01;;;;;;;20.98;12.70;;;;;;;;;;5070204;28;20047;-75
2024/02/13 00:15:26;;;;;;;21.90;13.60;;;;;;;;;;5069868;28;20063;-75
2024/02/13 00:17:51;;;;;;;19.63;12.13;;;;;;;;;;5068866;28;20393;-76
2024/02/13 00:20:17;;;;;;;21.40;12.73;;;;;;;;;;5077412;28;20115;-75
2024/02/13 00:22:43;;;;;;;19.70;12.88;;;;;;;;;;5070036;28;20035;-75
2024/02/13 00:25:08;;;;;;;21.05;11.85;;;;;;;;;;5076497;28;20108;-76
2024/02/13 00:27:35;;;;;;;22.75;13.88;;;;;;;;;;5069730;28;20109;-75
2024/02/13 00:30:03;;;;;;;22.25;13.73;;;;;;;;;;5073305;28;20047;-75
2024/02/13 00:32:28;;;;;;;22.27;12.75;;;;;;;;;;5072487;28;20536;-75
2024/02/13 00:34:53;;;;;;;19.92;13.18;;;;;;;;;;5070028;28;20128;-75
2024/02/13 00:37:19;;;;;;;21.98;13.20;;;;;;;;;;5069848;28;20131;-75
2024/02/13 00:39:44;;;;;;;24.92;14.98;;;;;;;;;;5076159;28;20037;-76
2024/02/13 00:42:09;;;;;;;22.40;12.95;;;;;;;;;;5069581;28;20041;-76
2024/02/13 00:44:36;;;;;;;22.48;12.50;;;;;;;;;;5069521;28;20032;-75
2024/02/13 00:47:02;;;;;;;20.00;11.35;;;;;;;;;;5069776;28;20055;-76
2024/02/13 00:49:28;;;;;;;22.55;13.45;;;;;;;;;;5076735;28;20492;-76
2024/02/13 00:51:54;;;;;;;20.58;12.35;;;;;;;;;;5072289;28;20060;-76
2024/02/13 00:54:20;;;;;;;18.80;10.70;;;;;;;;;;5069405;28;20055;-76
2024/02/13 00:56:47;;;;;;;22.70;11.75;;;;;;;;;;5070343;28;20523;-76
2024/02/13 00:59:12;;;;;;;17.77;10.95;;;;;;;;;;5078503;28;20059;-76
2024/02/13 01:01:38;;;;;;;20.45;11.93;;;;;;;;;;5070009;28;20052;-76
2024/02/13 01:04:06;;;;;;;22.05;11.85;;;;;;;;;;5072717;28;20477;-76
2024/02/13 01:06:31;;;;;;;24.25;11.93;;;;;;;;;;5077421;28;20043;-76
2024/02/13 01:08:57;;;;;;;20.40;11.25;;;;;;;;;;5076423;28;20035;-76
2024/02/13 01:11:22;;;;;;;20.13;11.35;;;;;;;;;;5069102;28;20039;-76
2024/02/13 01:13:47;;;;;;;21.33;11.23;;;;;;;;;;5069401;28;20031;-76
2024/02/13 01:16:14;;;;;;;19.55;11.80;;;;;;;;;;5069761;28;20078;-76
2024/02/13 01:18:39;;;;;;;19.88;10.80;;;;;;;;;;5072387;28;20025;-76
2024/02/13 01:21:05;;;;;;;24.23;12.40;;;;;;;;;;5072690;28;20090;-76
2024/02/13 01:23:30;;;;;;;19.92;10.82;;;;;;;;;;5072669;28;20033;-76
2024/02/13 01:25:56;;;;;;;19.50;11.02;;;;;;;;;;5074676;28;20059;-76
2024/02/13 01:28:22;;;;;;;22.77;13.00;;;;;;;;;;5076842;28;20048;-76
2024/02/13 01:30:47;;;;;;;22.38;12.30;;;;;;;;;;5075926;28;20033;-76
2024/02/13 01:33:12;;;;;;;23.42;11.85;;;;;;;;;;5072045;28;20059;-75
2024/02/13 01:35:42;;;;;;;20.85;10.93;;;;;;;;;;5070945;28;20043;-75
2024/02/13 01:38:09;;;;;;;21.13;11.18;;;;;;;;;;5073038;28;20120;-75
2024/02/13 01:40:35;;;;;;;20.73;11.65;;;;;;;;;;5079082;28;20086;-76
2024/02/13 01:43:02;;;;;;;21.67;11.95;;;;;;;;;;5078989;28;20044;-76
2024/02/13 01:45:27;;;;;;;20.58;12.73;;;;;;;;;;5073323;28;20082;-75
2024/02/13 01:47:53;;;;;;;20.83;12.57;;;;;;;;;;5072767;28;20115;-76
2024/02/13 01:50:20;;;;;;;19.65;10.77;;;;;;;;;;5079196;28;20048;-76
2024/02/13 01:52:45;;;;;;;19.45;11.10;;;;;;;;;;5072656;28;20111;-76
2024/02/13 01:55:12;;;;;;;19.23;11.40;;;;;;;;;;5072119;28;20561;-76
2024/02/13 01:57:40;;;;;;;19.45;10.85;;;;;;;;;;5071314;28;20446;-76
2024/02/13 02:00:09;;;;;;;20.35;11.45;;;;;;;;;;5078124;28;20500;-76
2024/02/13 02:02:37;;;;;;;19.88;11.40;;;;;;;;;;5074088;28;20115;-75
2024/02/13 02:05:06;;;;;;;18.58;10.48;;;;;;;;;;5072308;28;20477;-76
2024/02/13 02:07:32;;;;;;;17.40;10.18;;;;;;;;;;5071118;28;20109;-75
2024/02/13 02:09:58;;;;;;;19.27;11.10;;;;;;;;;;5078366;28;20050;-75
2024/02/13 02:12:23;;;;;;;21.00;11.38;;;;;;;;;;5070853;28;20024;-76
2024/02/13 02:14:48;;;;;;;17.27;10.90;;;;;;;;;;5072104;28;20547;-76
2024/02/13 02:17:13;;;;;;;22.42;11.70;;;;;;;;;;5072419;28;20051;-76
2024/02/13 02:19:38;;;;;;;23.63;12.18;;;;;;;;;;5079896;28;20028;-76
2024/02/13 02:22:06;;;;;;;18.10;10.40;;;;;;;;;;5072821;28;20032;-75
2024/02/13 02:24:32;;;;;;;18.55;11.23;;;;;;;;;;5073210;28;20075;-75
2024/02/13 02:26:57;;;;;;;17.83;10.23;;;;;;;;;;5073657;28;20059;-76
2024/02/13 02:29:23;;;;;;;17.67;10.63;;;;;;;;;;5075339;28;20032;-75
2024/02/13 02:31:49;;;;;;;19.90;10.80;;;;;;;;;;5074954;28;20055;-76
2024/02/13 02:34:18;;;;;;;19.70;10.93;;;;;;;;;;5076334;28;20487;-75
2024/02/13 02:36:43;;;;;;;19.95;11.63;;;;;;;;;;5078230;28;20485;-76
2024/02/13 02:39:09;;;;;;;20.55;10.40;;;;;;;;;;5076909;28;20115;-75
2024/02/13 02:41:34;;;;;;;21.40;12.30;;;;;;;;;;5071818;28;20075;-75
2024/02/13 02:44:00;;;;;;;22.02;12.00;;;;;;;;;;5071615;28;20657;-75
2024/02/13 02:46:25;;;;;;;18.40;10.63;;;;;;;;;;5070351;28;20511;-75
2024/02/13 02:48:50;;;;;;;19.60;11.35;;;;;;;;;;5074016;28;20029;-75
2024/02/13 02:51:15;;;;;;;20.92;11.77;;;;;;;;;;5082233;28;20028;-75
2024/02/13 02:53:40;;;;;;;22.45;11.80;;;;;;;;;;5071232;28;20040;-75
2024/02/13 02:56:06;;;;;;;21.95;11.75;;;;;;;;;;5071471;28;20030;-75
2024/02/13 02:58:31;;;;;;;19.98;12.05;;;;;;;;;;5072580;28;20029;-75
2024/02/13 03:00:56;;;;;;;21.58;11.93;;;;;;;;;;5076981;28;20036;-75
2024/02/13 03:03:21;;;;;;;21.38;12.80;;;;;;;;;;5073038;28;20542;-75
2024/02/13 03:05:47;;;;;;;24.08;13.27;;;;;;;;;;5071455;28;20071;-75
2024/02/13 03:08:12;;;;;;;21.40;12.40;;;;;;;;;;5071386;28;20394;-75
2024/02/13 03:10:37;;;;;;;20.98;11.98;;;;;;;;;;5077893;28;20495;-75
2024/02/13 03:13:02;;;;;;;22.60;12.30;;;;;;;;;;5071171;28;20032;-75
2024/02/13 03:15:28;;;;;;;20.92;13.25;;;;;;;;;;5070709;28;20043;-75
2024/02/13 03:17:53;;;;;;;23.80;13.63;;;;;;;;;;5071014;28;20037;-76
2024/02/13 03:20:18;;;;;;;23.40;13.38;;;;;;;;;;5076194;28;20116;-76
2024/02/13 03:22:43;;;;;;;22.70;12.50;;;;;;;;;;5077841;28;20267;-76
2024/02/13 03:25:09;;;;;;;21.65;12.93;;;;;;;;;;5074198;28;20111;-75
2024/02/13 03:27:34;;;;;;;24.48;11.88;;;;;;;;;;5070619;28;20515;-75
2024/02/13 03:29:59;;;;;;;21.50;12.70;;;;;;;;;;5075915;28;20047;-76
2024/02/13 03:32:25;;;;;;;20.95;12.40;;;;;;;;;;5073825;28;20056;-76
2024/02/13 03:34:51;;;;;;;21.70;11.90;;;;;;;;;;5072884;28;20546;-76
2024/02/13 03:37:16;;;;;;;27.30;15.05;;;;;;;;;;5069333;28;20028;-76
2024/02/13 03:39:44;;;;;;;21.50;11.30;;;;;;;;;;5075487;28;20131;-75
2024/02/13 03:42:09;;;;;;;26.33;13.80;;;;;;;;;;5077468;28;20058;-76
2024/02/13 03:44:37;;;;;;;31.67;15.55;;;;;;;;;;5068882;28;20511;-76
2024/02/13 03:47:05;;;;;;;20.80;11.57;;;;;;;;;;5070520;28;20414;-75
2024/02/13 03:49:31;;;;;;;16.95;9.50;;;;;;;;;;5082745;28;20032;-76
2024/02/13 03:51:56;;;;;;;16.98;10.55;;;;;;;;;;5069864;28;20040;-76
2024/02/13 03:54:21;;;;;;;18.88;10.05;;;;;;;;;;5069872;28;20033;-76
2024/02/13 03:56:47;;;;;;;16.23;9.75;;;;;;;;;;5070374;28;20032;-76
2024/02/13 03:59:13;;;;;;;19.05;11.23;;;;;;;;;;5074265;28;20107;-76
2024/02/13 04:01:38;;;;;;;15.90;9.88;;;;;;;;;;5069126;28;20033;-76
2024/02/13 04:04:04;;;;;;;20.27;11.23;;;;;;;;;;5071814;28;20054;-76
2024/02/13 04:06:29;;;;;;;14.88;9.27;;;;;;;;;;5077696;28;20044;-75
2024/02/13 04:08:56;;;;;;;18.38;9.20;;;;;;;;;;5078218;28;20048;-76
2024/02/13 04:11:21;;;;;;;15.57;9.70;;;;;;;;;;5074461;28;20036;-76
2024/02/13 04:13:46;;;;;;;18.50;11.15;;;;;;;;;;5073418;28;20518;-76
2024/02/13 04:16:12;;;;;;;18.40;8.75;;;;;;;;;;5070247;28;20044;-76
2024/02/13 04:18:39;;;;;;;17.45;9.63;;;;;;;;;;5068521;28;20032;-76
2024/02/13 04:21:05;;;;;;;17.90;9.65;;;;;;;;;;5074676;28;20560;-76
2024/02/13 04:23:30;;;;;;;17.23;9.77;;;;;;;;;;5069555;28;20047;-75
2024/02/13 04:25:55;;;;;;;16.88;9.50;;;;;;;;;;5074121;28;20044;-75
2024/02/13 04:28:22;;;;;;;15.20;9.75;;;;;;;;;;5075506;28;20044;-75
2024/02/13 04:30:48;;;;;;;16.92;9.05;;;;;;;;;;5074142;28;20038;-76
2024/02/13 04:33:13;;;;;;;13.50;8.52;;;;;;;;;;5073101;28;20028;-76
2024/02/13 04:35:38;;;;;;;18.80;11.05;;;;;;;;;;5069444;28;20492;-76
2024/02/13 04:38:05;;;;;;;17.90;10.05;;;;;;;;;;5070110;28;20028;-76
2024/02/13 04:40:30;;;;;;;18.48;10.75;;;;;;;;;;5073773;28;20875;-76
2024/02/13 04:42:55;;;;;;;15.57;9.48;;;;;;;;;;5069929;28;20060;-76
2024/02/13 04:45:23;;;;;;;14.43;9.48;;;;;;;;;;5069463;28;20098;-76
2024/02/13 04:47:48;;;;;;;16.00;9.02;;;;;;;;;;5069825;28;20481;-76
2024/02/13 04:50:13;;;;;;;16.27;9.45;;;;;;;;;;5073802;28;20039;-76
2024/02/13 04:52:38;;;;;;;18.20;9.63;;;;;;;;;;5076256;28;20458;-76
2024/02/13 04:55:04;;;;;;;18.15;9.98;;;;;;;;;;5069502;28;20020;-77
2024/02/13 04:57:30;;;;;;;24.88;12.93;;;;;;;;;;5069679;28;20473;-76
2024/02/13 04:59:57;;;;;;;29.58;13.10;;;;;;;;;;5077821;28;20032;-75
2024/02/13 05:02:24;;;;;;;20.55;11.25;;;;;;;;;;5077278;28;20459;-75
2024/02/13 05:07:47;;;;;;;17.38;9.75;;;;;;;;;;5056792;28;20049;-75
2024/02/13 05:10:12;;;;;;;19.20;11.68;;;;;;;;;;5077536;28;20534;-75
2024/02/13 05:12:42;;;;;;;19.48;11.45;;;;;;;;;;5073252;28;20060;-75
2024/02/13 05:15:08;;;;;;;18.83;10.85;;;;;;;;;;5073093;28;20044;-76
2024/02/13 05:17:34;;;;;;;18.20;10.63;;;;;;;;;;5073010;28;20029;-75
2024/02/13 05:19:59;;;;;;;21.75;12.63;;;;;;;;;;5086546;28;20032;-75
2024/02/13 05:22:25;;;;;;;22.13;11.80;;;;;;;;;;5089982;28;20412;-75
2024/02/13 05:24:50;;;;;;;20.27;10.82;;;;;;;;;;5081100;28;20028;-75
2024/02/13 05:27:15;;;;;;;27.75;14.20;;;;;;;;;;5089488;28;20408;-75
2024/02/13 05:29:43;;;;;;;21.80;11.25;;;;;;;;;;5090704;28;20040;-75
2024/02/13 05:32:08;;;;;;;19.08;10.85;;;;;;;;;;5088593;28;20036;-76
2024/02/13 05:34:34;;;;;;;18.17;10.60;;;;;;;;;;5089094;28;20054;-75
2024/02/13 05:36:59;;;;;;;16.52;10.45;;;;;;;;;;5084411;28;20021;-76
2024/02/13 05:39:25;;;;;;;17.20;9.13;;;;;;;;;;5080246;28;20028;-76
2024/02/13 05:41:50;;;;;;;13.82;8.45;;;;;;;;;;5078812;28;20040;-75
2024/02/13 05:44:16;;;;;;;13.65;8.40;;;;;;;;;;5078467;28;20035;-75
2024/02/13 05:46:42;;;;;;;16.08;8.90;;;;;;;;;;5078558;28;20085;-75
2024/02/13 05:49:08;;;;;;;11.73;6.82;;;;;;;;;;5083179;28;20040;-76
2024/02/13 05:51:34;;;;;;;14.10;8.55;;;;;;;;;;5073706;28;20044;-75
2024/02/13 05:54:03;;;;;;;13.75;7.45;;;;;;;;;;5071499;28;20047;-75
2024/02/13 05:56:28;;;;;;;13.02;7.43;;;;;;;;;;5077572;28;20036;-76
2024/02/13 05:58:55;;;;;;;13.27;7.85;;;;;;;;;;5081488;28;20039;-76
2024/02/13 06:01:20;;;;;;;14.32;8.05;;;;;;;;;;5076665;28;20035;-75
2024/02/13 06:03:46;;;;;;;12.23;7.53;;;;;;;;;;5077852;28;20032;-76
2024/02/13 06:06:11;;;;;;;12.93;7.90;;;;;;;;;;5076131;28;20050;-76
2024/02/13 06:08:36;;;;;;;13.82;7.82;;;;;;;;;;5072253;28;20042;-75
2024/02/13 06:11:02;;;;;;;18.38;9.27;;;;;;;;;;5075044;28;20097;-75
2024/02/13 06:13:27;;;;;;;15.75;8.35;;;;;;;;;;5070605;28;20025;-76
2024/02/13 06:15:53;;;;;;;12.32;6.78;;;;;;;;;;5072025;28;20492;-76
2024/02/13 06:18:18;;;;;;;14.70;8.45;;;;;;;;;;5072116;28;20385;-76
2024/02/13 06:20:43;;;;;;;13.13;7.72;;;;;;;;;;5074464;28;20025;-76
2024/02/13 06:23:08;;;;;;;14.57;8.23;;;;;;;;;;5076256;28;20044;-76
2024/02/13 06:25:34;;;;;;;13.05;8.13;;;;;;;;;;5071651;28;20038;-76
2024/02/13 06:27:59;;;;;;;12.68;7.95;;;;;;;;;;5074291;28;20504;-76
2024/02/13 06:30:24;;;;;;;12.38;7.50;;;;;;;;;;5077326;28;20025;-76
2024/02/13 06:32:50;;;;;;;14.45;8.93;;;;;;;;;;5078630;28;20032;-75
2024/02/13 06:35:15;;;;;;;19.52;9.02;;;;;;;;;;5071904;28;20029;-76
2024/02/13 06:37:41;;;;;;;14.07;8.70;;;;;;;;;;5071606;28;20039;-76
2024/02/13 06:40:07;;;;;;;14.07;9.00;;;;;;;;;;5074192;28;20032;-75
2024/02/13 06:42:32;;;;;;;13.60;7.75;;;;;;;;;;5071524;28;20059;-76
2024/02/13 06:44:57;;;;;;;14.32;8.50;;;;;;;;;;5071506;28;20060;-76
2024/02/13 06:47:25;;;;;;;13.38;8.55;;;;;;;;;;5075307;28;20035;-75
2024/02/13 06:49:51;;;;;;;14.45;8.00;;;;;;;;;;5084793;28;20032;-76
2024/02/13 06:52:16;;;;;;;12.23;7.00;;;;;;;;;;5071109;28;20039;-76
2024/02/13 06:54:41;;;;;;;11.27;7.15;;;;;;;;;;5071228;28;20404;-76
2024/02/13 06:57:07;;;;;;;11.07;6.85;;;;;;;;;;5077120;28;20053;-75
2024/02/13 06:59:32;;;;;;;10.38;6.85;;;;;;;;;;5075880;28;20472;-76
2024/02/13 07:01:59;;;;;;;11.48;6.30;;;;;;;;;;5075313;28;20032;-76
2024/02/13 07:04:25;;;;;;;13.05;6.30;;;;;;;;;;5077900;28;20059;-76
2024/02/13 07:06:55;;;;;;;10.85;6.82;;;;;;;;;;5073368;28;20059;-76
2024/02/13 07:09:22;;;;;;;9.73;6.40;;;;;;;;;;5079245;28;20024;-76
2024/02/13 07:11:48;;;;;;;11.88;6.57;;;;;;;;;;5071972;28;20162;-76
2024/02/13 07:14:13;;;;;;;12.07;6.68;;;;;;;;;;5070541;28;20111;-76
2024/02/13 07:16:38;;;;;;;11.00;6.65;;;;;;;;;;5071006;28;20025;-76
2024/02/13 07:19:04;;;;;;;9.93;6.32;;;;;;;;;;5071220;28;20035;-76
2024/02/13 07:21:33;;;;;;;10.80;7.00;;;;;;;;;;5073553;28;20029;-76
2024/02/13 07:23:58;;;;;;;12.02;6.75;;;;;;;;;;5079162;28;20546;-76
2024/02/13 07:26:24;;;;;;;12.45;7.30;;;;;;;;;;5073232;28;20241;-76
2024/02/13 07:28:49;;;;;;;12.77;7.32;;;;;;;;;;5074257;28;20161;-76
2024/02/13 07:31:19;;;;;;;12.50;6.25;;;;;;;;;;5078800;28;20107;-76
2024/02/13 07:33:44;;;;;;;13.02;6.50;;;;;;;;;;5073208;28;20047;-76
2024/02/13 07:36:10;;;;;;;11.50;6.95;;;;;;;;;;5076673;28;20028;-76
2024/02/13 07:38:35;;;;;;;12.13;6.45;;;;;;;;;;5088914;28;20032;-75
2024/02/13 07:41:01;;;;;;;11.95;6.22;;;;;;;;;;5075939;28;20036;-76
2024/02/13 07:43:27;;;;;;;11.63;6.45;;;;;;;;;;5074127;28;20032;-76
2024/02/13 07:45:52;;;;;;;11.98;7.10;;;;;;;;;;5078208;28;20106;-76
2024/02/13 07:48:17;;;;;;;12.60;6.40;;;;;;;;;;5076834;28;20040;-76
2024/02/13 07:50:42;;;;;;;11.23;6.35;;;;;;;;;;5076533;28;20094;-76
2024/02/13 07:53:10;;;;;;;12.13;7.10;;;;;;;;;;5069895;28;20083;-76
2024/02/13 07:55:35;;;;;;;10.73;6.13;;;;;;;;;;5069418;28;20029;-76
2024/02/13 07:58:02;;;;;;;10.98;6.72;;;;;;;;;;5076205;28;20054;-76
2024/02/13 08:00:29;;;;;;;11.70;7.18;;;;;;;;;;5071021;28;20031;-76
2024/02/13 08:02:54;;;;;;;13.95;8.20;;;;;;;;;;5073846;28;20378;-76
2024/02/13 08:05:20;;;;;;;15.13;6.40;;;;;;;;;;5069797;28;20043;-76
2024/02/13 08:07:45;;;;;;;10.75;6.00;;;;;;;;;;5070023;28;20036;-76
2024/02/13 08:10:11;;;;;;;13.52;6.53;;;;;;;;;;5073939;28;20033;-77
2024/02/13 08:12:36;;;;;;;13.70;6.13;;;;;;;;;;5072710;28;20090;-76
2024/02/13 08:15:01;;;;;;;12.63;6.72;;;;;;;;;;5075774;28;20032;-76
2024/02/13 08:17:27;;;;;;;9.80;6.45;;;;;;;;;;5075402;28;20032;-76
2024/02/13 08:19:52;;;;;;;11.10;5.35;;;;;;;;;;5073191;28;20139;-76
2024/02/13 08:22:18;;;;;;;11.40;5.78;;;;;;;;;;5073782;28;20472;-76
2024/02/13 08:24:43;;;;;;;12.48;6.65;;;;;;;;;;5070879;28;20063;-75
2024/02/13 08:27:09;;;;;;;12.30;5.70;;;;;;;;;;5070126;28;20453;-76
2024/02/13 08:29:34;;;;;;;11.75;5.47;;;;;;;;;;5070606;28;20435;-76
2024/02/13 08:32:00;;;;;;;10.80;6.28;;;;;;;;;;5073179;28;20085;-76
2024/02/13 08:34:26;;;;;;;9.60;6.32;;;;;;;;;;5070805;28;20484;-76
2024/02/13 08:36:52;;;;;;;9.02;5.13;;;;;;;;;;5069710;28;20047;-76
2024/02/13 08:39:17;;;;;;;10.65;5.10;;;;;;;;;;5076576;28;20412;-76
2024/02/13 08:41:42;;;;;;;10.23;5.10;;;;;;;;;;5074426;28;20040;-76
2024/02/13 08:44:10;;;;;;;8.82;5.25;;;;;;;;;;5072734;28;20027;-76
2024/02/13 08:46:36;;;;;;;9.55;4.95;;;;;;;;;;5080651;28;20119;-76
2024/02/13 08:49:01;;;;;;;10.50;4.88;;;;;;;;;;5074092;28;20103;-76
2024/02/13 08:51:27;;;;;;;8.38;4.88;;;;;;;;;;5078351;28;20032;-76
2024/02/13 08:53:52;;;;;;;10.45;5.25;;;;;;;;;;5080166;28;20036;-76
2024/02/13 08:56:18;;;;;;;11.80;4.75;;;;;;;;;;5073916;28;20036;-76
2024/02/13 08:58:43;;;;;;;7.43;4.18;;;;;;;;;;5073519;28;21454;-76
2024/02/13 09:01:08;;;;;;;9.15;4.30;;;;;;;;;;5074973;28;20048;-76
2024/02/13 09:03:33;;;;;;;11.27;4.85;;;;;;;;;;5076063;28;20043;-76
2024/02/13 09:06:04;;;;;;;13.68;5.78;;;;;;;;;;5072199;28;20123;-76
2024/02/13 09:08:29;;;;;;;11.27;4.70;;;;;;;;;;5072365;28;20404;-76
2024/02/13 09:10:54;;;;;;;11.35;4.30;;;;;;;;;;5072651;28;20028;-76
2024/02/13 09:13:20;;;;;;;9.70;4.38;;;;;;;;;;5073295;28;20090;-76
2024/02/13 09:15:45;;;;;;;11.23;4.30;;;;;;;;;;5073251;28;20378;-76
2024/02/13 09:18:10;;;;;;;9.38;3.80;;;;;;;;;;5073420;28;20029;-76
2024/02/13 09:20:35;;;;;;;10.35;3.80;;;;;;;;;;5083349;28;20024;-76
2024/02/13 09:23:01;;;;;;;10.18;3.72;;;;;;;;;;5073399;28;20029;-76
2024/02/13 09:25:27;;;;;;;9.13;3.92;;;;;;;;;;5071470;28;20028;-76
2024/02/13 09:27:54;;;;;;;8.75;3.13;;;;;;;;;;5072981;28;20475;-76
2024/02/13 09:30:19;;;;;;;8.85;3.92;;;;;;;;;;5073441;28;20081;-76
2024/02/13 09:32:46;;;;;;;7.38;3.88;;;;;;;;;;5076855;28;20489;-76
2024/02/13 09:35:13;;;;;;;8.55;3.72;;;;;;;;;;5080774;28;20041;-76
2024/02/13 09:37:40;;;;;;;10.02;3.45;;;;;;;;;;5083206;28;20028;-76
2024/02/13 09:40:15;;;;;;;8.80;3.63;;;;;;;;;;5081034;28;20035;-76
2024/02/13 09:42:41;;;;;;;8.57;3.67;;;;;;;;;;5078052;28;20098;-76
2024/02/13 09:45:07;;;;;;;9.15;4.57;;;;;;;;;;5072540;28;20032;-76
2024/02/13 09:47:33;;;;;;;8.43;4.50;;;;;;;;;;5075708;28;20107;-76
2024/02/13 09:49:59;;;;;;;9.18;4.38;;;;;;;;;;5072868;28;20036;-76
2024/02/13 09:52:26;;;;;;;9.43;4.82;;;;;;;;;;5072771;28;20162;-76
2024/02/13 09:54:51;;;;;;;10.20;4.25;;;;;;;;;;5076460;28;20033;-76
2024/02/13 09:57:17;;;;;;;9.73;4.28;;;;;;;;;;5072343;28;20024;-76
2024/02/13 09:59:43;;;;;;;8.65;4.38;;;;;;;;;;5082287;28;20040;-76
2024/02/13 10:02:08;;;;;;;10.57;4.25;;;;;;;;;;5073829;28;20110;-76
2024/02/13 10:04:37;;;;;;;8.30;4.43;;;;;;;;;;5081117;28;20117;-76
2024/02/13 10:07:04;;;;;;;6.43;3.58;;;;;;;;;;5082749;28;20039;-76
2024/02/13 10:09:32;;;;;;;7.30;3.78;;;;;;;;;;5075950;28;20025;-76
2024/02/13 10:11:58;;;;;;;10.23;3.85;;;;;;;;;;5071671;28;20032;-76
2024/02/13 10:14:23;;;;;;;7.55;4.03;;;;;;;;;;5071361;28;20033;-76
2024/02/13 10:16:50;;;;;;;7.70;3.55;;;;;;;;;;5072922;28;20035;-76
2024/02/13 10:19:16;;;;;;;6.20;3.45;;;;;;;;;;5080590;28;20116;-76
2024/02/13 10:21:42;;;;;;;7.85;4.95;;;;;;;;;;5073745;28;20086;-76
2024/02/13 10:24:09;;;;;;;8.85;3.58;;;;;;;;;;5071626;28;20044;-76
2024/02/13 10:26:34;;;;;;;5.63;3.28;;;;;;;;;;5070686;28;20035;-76
2024/02/13 10:29:00;;;;;;;5.63;3.25;;;;;;;;;;5076580;28;20036;-76
2024/02/13 10:31:26;;;;;;;6.60;3.00;;;;;;;;;;5075941;28;20408;-76
2024/02/13 10:33:51;;;;;;;5.55;2.60;;;;;;;;;;5075780;28;20112;-76
2024/02/13 10:36:16;;;;;;;6.80;3.45;;;;;;;;;;5071759;28;20040;-76
2024/02/13 10:38:45;;;;;;;6.03;3.47;;;;;;;;;;5070472;28;20378;-76
2024/02/13 10:41:10;;;;;;;7.78;3.60;;;;;;;;;;5078808;28;20042;-76
2024/02/13 10:43:38;;;;;;;11.65;3.97;;;;;;;;;;5072244;28;20120;-76
2024/02/13 10:46:05;;;;;;;9.40;4.28;;;;;;;;;;5070885;28;20166;-76
2024/02/13 10:48:30;;;;;;;9.50;4.10;;;;;;;;;;5071561;28;20028;-76
2024/02/13 10:50:57;;;;;;;6.78;3.55;;;;;;;;;;5077500;28;20020;-76
2024/02/13 10:53:23;;;;;;;7.40;3.80;;;;;;;;;;5071245;28;20052;-76
2024/02/13 10:55:52;;;;;;;10.25;4.00;;;;;;;;;;5075927;28;20488;-76
2024/02/13 10:58:19;;;;;;;8.85;3.95;;;;;;;;;;5072355;28;20086;-76
2024/02/13 11:00:45;;;;;;;8.50;3.72;;;;;;;;;;5078423;28;20036;-76
2024/02/13 11:03:11;;;;;;;12.48;4.15;;;;;;;;;;5080554;28;20043;-76
2024/02/13 11:05:36;;;;;;;7.50;4.32;;;;;;;;;;5074304;28;20029;-76
2024/02/13 11:08:02;;;;;;;5.50;3.25;;;;;;;;;;5070325;28;20036;-76
2024/02/13 11:10:34;;;;;;;8.20;3.80;;;;;;;;;;5073566;28;20036;-76
2024/02/13 11:13:05;;;;;;;8.18;4.30;;;;;;;;;;5077639;28;20031;-76
2024/02/13 11:15:37;;;;;;;7.55;3.35;;;;;;;;;;5079053;28;20028;-76
2024/02/13 11:18:06;;;;;;;8.20;3.33;;;;;;;;;;5080742;28;20021;-76
2024/02/13 11:20:37;;;;;;;7.40;3.65;;;;;;;;;;5080919;28;20040;-76
2024/02/13 11:23:03;;;;;;;6.43;3.85;;;;;;;;;;5079240;28;20035;-76
2024/02/13 11:25:34;;;;;;;8.32;3.72;;;;;;;;;;5071262;28;20032;-76
2024/02/13 11:28:06;;;;;;;9.48;3.30;;;;;;;;;;5053811;28;20454;-76
2024/02/13 11:30:32;;;;;;;7.97;3.53;;;;;;;;;;5041903;28;20100;-77
2024/02/13 11:33:01;;;;;;;5.68;2.95;;;;;;;;;;5043188;28;20022;-76
2024/02/13 11:35:44;;;;;;;6.15;3.33;;;;;;;;;;5043901;28;20068;-76
2024/02/13 11:38:10;;;;;;;10.02;3.83;;;;;;;;;;5042606;28;20034;-76
2024/02/13 11:40:40;;;;;;;7.00;4.10;;;;;;;;;;5043171;28;20144;-76
2024/02/13 11:43:06;;;;;;;9.88;3.90;;;;;;;;;;5037915;28;20131;-76
2024/02/13 11:45:31;;;;;;;8.48;3.30;;;;;;;;;;5039070;28;20526;-76
2024/02/13 11:47:57;;;;;;;6.65;3.20;;;;;;;;;;5041080;28;20034;-76
2024/02/13 11:50:22;;;;;;;7.18;2.50;;;;;;;;;;5043709;28;20083;-76
2024/02/13 11:52:51;;;;;;;6.90;2.53;;;;;;;;;;5044657;28;20029;-76
2024/02/13 11:55:19;;;;;;;5.93;2.10;;;;;;;;;;5042865;28;20037;-76
2024/02/13 11:57:44;;;;;;;5.22;2.10;;;;;;;;;;5037503;28;20099;-76
2024/02/13 12:00:18;;;;;;;6.30;3.58;;;;;;;;;;5041811;28;20037;-76
2024/02/13 12:02:44;;;;;;;8.95;3.38;;;;;;;;;;5041768;28;20033;-76
2024/02/13 12:05:10;;;;;;;8.95;2.53;;;;;;;;;;5042957;28;20111;-77
2024/02/13 12:07:37;;;;;;;5.93;3.00;;;;;;;;;;5046094;28;20554;-76
2024/02/13 12:10:05;;;;;;;5.72;3.10;;;;;;;;;;5049902;28;20162;-76
2024/02/13 12:12:31;;;;;;;9.02;3.03;;;;;;;;;;5041147;28;20029;-77
2024/02/13 12:14:57;;;;;;;6.05;3.30;;;;;;;;;;5040316;28;20112;-76
2024/02/13 12:17:22;;;;;;;5.65;2.90;;;;;;;;;;5042314;28;20457;-76
2024/02/13 12:19:48;;;;;;;7.95;3.55;;;;;;;;;;5043708;28;20057;-76
2024/02/13 12:22:16;;;;;;;5.88;2.63;;;;;;;;;;5045440;28;20133;-76
2024/02/13 12:24:42;;;;;;;12.20;6.63;;;;;;;;;;5036934;28;20450;-76
2024/02/13 12:27:10;;;;;;;5.93;3.25;;;;;;;;;;5039288;28;20037;-77
2024/02/13 12:29:38;;;;;;;12.45;5.30;;;;;;;;;;5040752;28;20104;-76
2024/02/13 12:32:16;;;;;;;7.97;3.40;;;;;;;;;;5044925;28;20668;-76
2024/02/13 12:34:47;;;;;;;5.60;2.88;;;;;;;;;;5041424;28;20025;-76
2024/02/13 12:37:15;;;;;;;6.50;3.00;;;;;;;;;;5041876;28;20479;-76
2024/02/13 12:39:41;;;;;;;5.15;3.20;;;;;;;;;;5024264;28;20247;-76
2024/02/13 12:42:10;;;;;;;5.82;3.10;;;;;;;;;;5026001;28;20108;-76
2024/02/13 12:44:37;;;;;;;5.68;2.75;;;;;;;;;;5027495;28;20029;-76
2024/02/13 12:47:03;;;;;;;4.85;2.47;;;;;;;;;;5036030;28;20417;-76
2024/02/13 12:49:28;;;;;;;6.47;3.17;;;;;;;;;;5031336;28;20048;-75
2024/02/13 12:51:54;;;;;;;6.50;3.25;;;;;;;;;;5025262;28;20554;-76
2024/02/13 12:54:20;;;;;;;5.88;2.85;;;;;;;;;;5026349;28;20088;-75
2024/02/13 12:56:46;;;;;;;5.75;3.22;;;;;;;;;;5025279;28;20095;-76
2024/02/13 12:59:12;;;;;;;8.70;3.70;;;;;;;;;;5027685;28;20498;-76
2024/02/13 13:01:53;;;;;;;7.38;3.65;;;;;;;;;;5028273;28;20100;-77
2024/02/13 13:04:21;;;;;;;6.68;3.38;;;;;;;;;;5032756;28;20049;-76
2024/02/13 13:06:46;;;;;;;11.40;3.35;;;;;;;;;;5021585;28;20116;-76
2024/02/13 13:09:13;;;;;;;6.50;3.58;;;;;;;;;;5028471;28;20116;-76
2024/02/13 13:11:38;;;;;;;6.72;2.85;;;;;;;;;;5025627;28;20029;-76
2024/02/13 13:14:03;;;;;;;8.80;2.80;;;;;;;;;;5029152;28;20044;-75
2024/02/13 13:16:30;;;;;;;5.53;2.75;;;;;;;;;;5030747;28;20095;-76
2024/02/13 13:18:59;;;;;;;7.60;2.55;;;;;;;;;;5024218;28;20060;-76
2024/02/13 13:21:25;;;;;;;5.07;2.50;;;;;;;;;;5022947;28;20038;-76
2024/02/13 13:23:53;;;;;;;6.20;2.58;;;;;;;;;;5023656;28;20160;-76
2024/02/13 13:26:19;;;;;;;6.05;2.80;;;;;;;;;;5027743;28;20044;-76
2024/02/13 13:28:45;;;;;;;8.02;3.20;;;;;;;;;;5028277;28;20406;-76
2024/02/13 13:31:14;;;;;;;5.95;3.08;;;;;;;;;;5030242;28;20025;-76
2024/02/13 13:33:39;;;;;;;7.85;2.75;;;;;;;;;;5020225;28;20030;-76
2024/02/13 13:36:05;;;;;;;5.40;3.25;;;;;;;;;;5027957;28;20042;-76
2024/02/13 13:38:30;;;;;;;7.95;2.70;;;;;;;;;;5026812;28;20037;-76
2024/02/13 13:41:01;;;;;;;6.60;3.47;;;;;;;;;;5026052;28;20030;-76
2024/02/13 13:43:26;;;;;;;6.43;3.42;;;;;;;;;;5029548;28;20398;-76
2024/02/13 13:45:55;;;;;;;7.50;3.07;;;;;;;;;;5027665;28;20040;-76
2024/02/13 13:48:21;;;;;;;9.27;2.70;;;;;;;;;;5024295;28;20283;-76
2024/02/13 13:50:46;;;;;;;4.57;2.45;;;;;;;;;;5021227;28;20115;-76
2024/02/13 13:53:11;;;;;;;6.70;2.33;;;;;;;;;;5027823;28;20112;-76
2024/02/13 13:55:37;;;;;;;7.40;2.30;;;;;;;;;;5023363;28;20044;-76
2024/02/13 13:58:02;;;;;;;4.32;1.90;;;;;;;;;;5029995;28;20493;-76
2024/02/13 14:00:32;;;;;;;5.45;2.33;;;;;;;;;;5024181;28;20067;-76
2024/02/13 14:02:57;;;;;;;4.25;2.05;;;;;;;;;;5032629;28;20116;-76
2024/02/13 14:05:23;;;;;;;6.20;2.67;;;;;;;;;;5022537;28;20084;-76
2024/02/13 14:07:49;;;;;;;7.13;2.50;;;;;;;;;;5021541;28;20494;-76
2024/02/13 14:10:16;;;;;;;5.22;2.80;;;;;;;;;;5025548;28;20028;-76
2024/02/13 14:12:45;;;;;;;5.95;2.20;;;;;;;;;;5029424;28;20065;-76
2024/02/13 14:15:11;;;;;;;5.97;2.08;;;;;;;;;;5022322;28;20118;-75
2024/02/13 14:17:41;;;;;;;4.85;2.13;;;;;;;;;;5022371;28;20129;-76
2024/02/13 14:20:09;;;;;;;6.95;2.25;;;;;;;;;;5029415;28;20044;-76
2024/02/13 14:22:35;;;;;;;8.43;2.97;;;;;;;;;;5022823;28;20084;-76
2024/02/13 14:25:00;;;;;;;5.75;2.40;;;;;;;;;;5028437;28;20499;-76
2024/02/13 14:27:28;;;;;;;5.95;2.38;;;;;;;;;;5028772;28;20032;-76